Time;durP1;ratioP1;P1;durP2;ratioP2;P2;SDS_P1;SDS_P2;PMS_P1;PMS_P2;Temp;Humidity;BMP_temperature;BMP_pressure;BME280_temperature;BME280_humidity;BME280_pressure;Samples;Min_cycle;Max_cycle;Signal;HPM_P1;HPM_P2
2022/03/18 08:06:07;;;;;;;15.60;6.85;;;;;;;6.73;71.62;102759.03;6151969;23;20278;-95
2022/03/18 08:10:29;;;;;;;19.33;7.22;;;;;;;6.59;71.84;102735.25;6192445;23;20471;-95
2022/03/18 08:14:15;;;;;;;15.48;6.38;;;;;;;6.92;71.14;102787.25;6208926;23;20029;-96
2022/03/18 08:18:02;;;;;;;;;;;;;;;;;;;;;
2022/03/18 08:22:04;;;;;;;14.88;6.70;;;;;;;6.94;70.67;102753.88;6228343;23;20043;-95
2022/03/18 08:25:31;;;;;;;16.83;6.80;;;;;;;7.39;69.41;102791.00;6159559;23;20073;-94
2022/03/18 08:28:51;;;;;;;17.27;7.03;;;;;;;7.34;69.82;102789.22;6142058;23;20025;-93
2022/03/18 08:40:17;;;;;;;15.35;7.30;;;;;;;7.43;67.65;102736.53;6162198;23;20072;31
2022/03/18 08:44:06;;;;;;;16.73;7.28;;;;;;;7.77;67.16;102813.97;6174437;23;20017;-92
2022/03/18 08:56:01;;;;;;;;;;;;;;;;;;;;;
2022/03/18 08:59:49;;;;;;;17.05;7.65;;;;;;;8.00;67.19;102825.50;6108220;23;20053;-94
2022/03/18 09:03:54;;;;;;;15.48;7.13;;;;;;;8.45;64.59;102826.47;6112035;23;20066;-93
2022/03/18 09:07:30;;;;;;;;;;;;;;;;;;;;;
2022/03/18 09:21:50;;;;;;;17.38;7.10;;;;;;;8.73;60.52;102806.19;6206223;23;20036;-93
2022/03/18 09:24:38;;;;;;;19.58;7.57;;;;;;;8.27;61.13;102769.22;6199245;23;20024;-92
2022/03/18 09:30:57;;;;;;;13.10;6.75;;;;;;;7.92;64.21;102799.94;5080176;28;20391;-93
2022/03/18 09:42:34;;;;;;;14.52;6.72;;;;;;;9.15;59.18;102779.69;5084009;28;20074;-94
2022/03/18 09:50:08;;;;;;;13.63;5.97;;;;;;;10.27;53.63;102832.94;5014987;28;20055;-92
2022/03/18 10:16:06;;;;;;;8.98;4.55;;;;;;;13.21;39.67;102765.31;6028247;23;21133;-93
2022/03/18 10:18:49;;;;;;;7.93;4.07;;;;;;;13.61;38.72;102826.56;5498381;23;20045;-93
2022/03/18 10:24:44;;;;;;;;;;;;;;;;;;;;;
2022/03/18 10:27:50;;;;;;;;;;;;;;;14.74;36.55;102814.16;5065337;28;20045;-95
2022/03/18 10:31:21;;;;;;;;;;;;;;;;;;;;;
2022/03/18 11:08:21;;;;;;;8.82;4.00;;;;;;;20.80;26.63;102826.50;5609944;23;20031;-94
2022/03/18 11:27:47;;;;;;;5.70;3.50;;;;;;;18.77;27.88;102837.84;5760806;23;20046;-93
2022/03/18 12:07:00;;;;;;;5.70;2.75;;;;;;;22.95;21.50;102777.53;5964925;23;20045;31
2022/03/18 13:11:01;;;;;;;3.75;1.48;;;;;;;;;;5540016;23;20179;-96
2022/03/18 13:40:41;;;;;;;3.10;1.38;;;;;;;25.99;16.67;102704.25;5604672;23;20108;-94
2022/03/18 13:43:39;;;;;;;2.45;1.40;;;;;;;24.88;16.10;102711.53;4998735;28;20081;-96
2022/03/18 13:46:41;;;;;;;4.10;1.38;;;;;;;23.40;17.86;102641.28;5003404;28;20098;-94
2022/03/18 13:49:48;;;;;;;;;;;;;;;;;;;;;
2022/03/18 13:53:03;;;;;;;;;;;;;;;;;;;;;
2022/03/18 13:55:52;;;;;;;2.65;1.20;;;;;;;25.64;15.33;102633.66;5045338;23;20105;-96
2022/03/18 14:01:41;;;;;;;2.35;1.38;;;;;;;24.76;16.14;102624.72;5184313;23;20066;-96
2022/03/18 14:48:22;;;;;;;2.83;1.33;;;;;;;26.07;13.21;102663.84;4954072;29;20039;-93
2022/03/18 14:51:25;;;;;;;;;;;;;;;;;;;;;
2022/03/18 15:00:23;;;;;;;;;;;;;;;;;;;;;
2022/03/18 15:03:03;;;;;;;3.60;1.40;;;;;;;25.80;13.20;102625.22;4952252;29;20052;-95
2022/03/18 15:05:49;;;;;;;2.50;1.30;;;;;;;24.64;13.91;102603.06;4949174;29;20071;-96
2022/03/18 15:09:04;;;;;;;2.80;1.33;;;;;;;25.04;14.22;102666.13;4949414;29;20054;-96
2022/03/18 15:12:40;;;;;;;2.28;1.38;;;;;;;24.50;14.30;102662.78;4939202;29;20082;-95
2022/03/18 15:18:08;;;;;;;2.63;1.38;;;;;;;21.68;16.99;102595.28;4987588;28;20054;-94
2022/03/18 15:21:03;;;;;;;2.95;1.33;;;;;;;20.84;17.79;102665.63;4972373;28;20035;-95
2022/03/18 15:23:59;;;;;;;4.05;2.00;;;;;;;19.65;18.98;102611.78;4946743;28;20118;-96
2022/03/18 15:26:55;;;;;;;1.95;1.23;;;;;;;18.98;20.26;102666.00;4968490;28;20239;-96
2022/03/18 15:29:44;;;;;;;3.30;1.73;;;;;;;17.40;20.84;102604.00;4984854;28;20066;-96
2022/03/18 15:35:56;;;;;;;;;;;;;;;;;;;;;
2022/03/18 15:38:38;;;;;;;2.10;1.45;;;;;;;15.71;23.72;102620.94;4984612;28;20062;-92
2022/03/18 15:41:22;;;;;;;3.85;1.40;;;;;;;15.57;24.35;102652.56;4980836;28;20053;-95
2022/03/18 15:44:07;;;;;;;4.10;1.85;;;;;;;15.10;24.34;102625.50;4988155;28;20043;-94
2022/03/18 15:46:53;;;;;;;2.90;1.60;;;;;;;14.80;24.68;102626.41;4976996;28;20050;-96
2022/03/18 15:49:40;;;;;;;3.35;1.60;;;;;;;14.63;25.13;102627.78;4990484;28;20046;-96
2022/03/18 15:52:56;;;;;;;3.55;1.77;;;;;;;14.53;25.51;102652.94;4987369;28;20037;-95
2022/03/18 15:55:43;;;;;;;2.67;1.48;;;;;;;14.62;26.20;102678.50;4980951;28;20062;-94
2022/03/18 15:58:29;;;;;;;3.25;1.60;;;;;;;14.22;26.59;102646.66;4976199;28;20050;-95
2022/03/18 16:02:06;;;;;;;3.90;1.70;;;;;;;14.09;26.94;102646.09;5083243;23;20026;-95
2022/03/18 16:05:27;;;;;;;4.00;1.80;;;;;;;13.99;27.38;102657.91;4991080;28;20047;-93
2022/03/18 17:04:54;;;;;;;5.22;2.05;;;;;;;12.17;32.65;102727.31;4984417;28;20118;-96
2022/03/18 18:04:14;;;;;;;6.47;2.83;;;;;;;10.60;35.99;102802.66;4987852;28;20064;-94
2022/03/18 18:06:45;;;;;;;5.75;2.30;;;;;;;10.53;36.01;102800.97;4968713;28;20138;-94
2022/03/18 18:09:48;;;;;;;11.35;2.45;;;;;;;10.65;36.17;102834.44;4961581;28;20053;-94
2022/03/18 18:12:32;;;;;;;3.30;1.85;;;;;;;10.60;35.70;102829.16;4964976;28;20050;-93
2022/03/18 18:15:02;;;;;;;4.13;2.10;;;;;;;10.60;35.80;102828.28;4950702;28;20047;-94
2022/03/18 18:17:32;;;;;;;4.30;2.25;;;;;;;10.65;35.83;102842.38;4987618;28;20119;-95
2022/03/18 18:34:05;;;;;;;5.47;2.80;;;;;;;10.00;37.03;102804.84;5114853;27;24522;-93
2022/03/18 18:36:43;;;;;;;5.38;2.40;;;;;;;10.25;37.51;102865.63;5094493;28;20028;-94
2022/03/18 18:39:21;;;;;;;5.43;2.60;;;;;;;10.00;37.46;102839.28;5090270;28;20047;-91
2022/03/18 18:41:59;;;;;;;5.15;2.58;;;;;;;9.95;37.71;102825.16;5094582;28;20549;-92
2022/03/18 18:44:31;;;;;;;5.80;2.97;;;;;;;9.82;38.13;102821.72;5097212;28;20056;-93
2022/03/18 18:47:18;;;;;;;7.57;2.97;;;;;;;9.63;38.81;102809.47;5091643;28;20044;-93
2022/03/18 18:49:54;;;;;;;8.55;3.33;;;;;;;9.92;39.06;102870.19;5085084;28;20049;-92
2022/03/18 18:52:27;;;;;;;7.53;2.78;;;;;;;9.45;39.59;102810.41;5096523;28;20048;-92
2022/03/18 18:55:00;;;;;;;5.95;2.75;;;;;;;9.57;39.70;102843.03;5088744;28;20067;-94
2022/03/18 18:58:03;;;;;;;8.25;3.30;;;;;;;9.63;40.32;102864.13;5097359;28;20048;-94
2022/03/18 19:00:51;;;;;;;8.55;3.28;;;;;;;9.54;40.17;102851.84;5088989;28;20123;-91
2022/03/18 19:03:51;;;;;;;7.30;3.22;;;;;;;9.41;40.41;102832.50;5092149;28;20056;-92
2022/03/18 19:07:08;;;;;;;5.13;2.67;;;;;;;9.48;40.20;102831.56;5096503;28;20048;-91
2022/03/18 19:09:55;;;;;;;6.35;2.90;;;;;;;9.48;40.36;102847.44;5095449;28;20068;-91
2022/03/18 19:12:26;;;;;;;5.78;2.90;;;;;;;9.57;40.12;102864.19;5090500;28;20066;-94
2022/03/18 19:15:16;;;;;;;8.10;3.08;;;;;;;9.40;39.74;102837.78;5097905;28;20040;-92
2022/03/18 19:18:09;;;;;;;6.40;3.00;;;;;;;9.27;40.50;102818.44;5095336;28;20045;-95
2022/03/18 19:21:00;;;;;;;7.88;3.30;;;;;;;9.33;40.71;102852.78;5093165;28;20055;-95
2022/03/18 19:23:49;;;;;;;7.82;3.10;;;;;;;9.23;41.09;102863.38;5093992;28;20047;-94
2022/03/18 19:26:34;;;;;;;7.93;3.70;;;;;;;9.32;41.82;102893.31;5094088;28;20048;-95
2022/03/18 19:29:45;;;;;;;6.68;3.05;;;;;;;9.14;41.69;102866.91;5094231;28;20044;-94
2022/03/18 19:32:27;;;;;;;8.25;3.35;;;;;;;8.99;42.32;102845.78;5094571;28;20049;-94
2022/03/18 19:35:22;;;;;;;7.75;3.67;;;;;;;8.88;42.21;102852.88;5080544;28;20067;-96
2022/03/18 19:37:58;;;;;;;10.95;3.75;;;;;;;8.88;42.22;102861.66;5082364;28;20044;-94
2022/03/18 19:40:35;;;;;;;6.28;3.25;;;;;;;8.79;42.26;102857.28;5081839;28;20060;-93
2022/03/18 19:43:21;;;;;;;6.40;3.55;;;;;;;9.12;42.47;102916.28;5075195;28;20048;-94
2022/03/18 19:46:05;;;;;;;6.22;3.50;;;;;;;9.02;42.35;102896.00;5074416;28;20048;-93
2022/03/18 19:48:34;;;;;;;7.18;3.70;;;;;;;8.99;42.19;102893.38;5075382;28;20048;-94
2022/03/18 19:51:22;;;;;;;9.85;3.97;;;;;;;8.88;42.32;102889.84;5076177;28;20068;-92
2022/03/18 19:54:00;;;;;;;9.48;3.63;;;;;;;9.07;42.35;102920.69;5080205;28;20053;-94
2022/03/18 20:02:44;;;;;;;6.43;3.53;;;;;;;8.78;42.81;102903.06;5075756;28;20057;-93
2022/03/18 20:05:30;;;;;;;8.80;3.75;;;;;;;8.77;42.69;102913.63;5081153;28;20411;-92
2022/03/18 20:08:05;;;;;;;6.20;3.30;;;;;;;8.63;42.54;102895.16;5078460;28;20075;-91
2022/03/18 20:10:52;;;;;;;7.40;3.30;;;;;;;8.57;42.05;102874.00;5078310;28;20056;-92
2022/03/18 20:13:28;;;;;;;7.13;3.20;;;;;;;8.53;42.23;102869.59;5087228;28;20072;-94
2022/03/18 20:16:26;;;;;;;9.05;4.30;;;;;;;8.69;42.91;102910.97;5079522;28;20057;-94
2022/03/18 20:19:09;;;;;;;7.82;3.42;;;;;;;8.42;42.64;102871.34;5081709;28;20041;-93
2022/03/18 20:21:45;;;;;;;6.03;3.22;;;;;;;8.55;42.86;102912.72;5076045;28;20047;-93
2022/03/18 20:24:18;;;;;;;;;;;;;;;8.59;43.18;102938.28;5079135;28;20119;-93
2022/03/18 20:27:23;;;;;;;7.65;3.92;;;;;;;8.38;43.23;102911.81;5078043;28;19931;-93
2022/03/18 20:29:58;;;;;;;8.13;3.50;;;;;;;8.25;43.70;102908.22;5076406;28;20070;-92
2022/03/18 20:32:53;;;;;;;7.10;3.53;;;;;;;8.18;43.64;102909.13;5074764;28;20052;-93
2022/03/18 20:35:33;;;;;;;8.82;3.58;;;;;;;8.28;43.81;102941.69;5072369;28;20575;-92
2022/03/18 20:38:15;;;;;;;8.90;3.70;;;;;;;8.04;43.88;102898.50;5075864;28;20112;-92
2022/03/18 20:40:46;;;;;;;8.48;3.70;;;;;;;8.24;43.99;102937.25;5069476;28;20499;-91
2022/03/18 20:43:17;;;;;;;8.52;3.58;;;;;;;8.05;44.26;102916.09;5080399;28;20046;-93
2022/03/18 20:45:55;;;;;;;6.72;3.50;;;;;;;7.86;44.19;102895.81;5069206;28;20049;-92
2022/03/18 20:48:39;;;;;;;9.48;4.03;;;;;;;7.90;44.91;102918.66;5065960;28;20076;-92
2022/03/18 20:51:16;;;;;;;8.20;3.70;;;;;;;7.84;45.05;102937.13;5065631;28;20068;-93
2022/03/18 20:54:02;;;;;;;6.75;3.33;;;;;;;7.89;45.02;102940.63;5068292;28;20060;-94
2022/03/18 20:57:02;;;;;;;8.82;3.92;;;;;;;7.93;45.35;102954.75;5071350;28;20048;-93
2022/03/18 20:59:56;;;;;;;10.48;3.38;;;;;;;7.79;44.95;102928.28;5069212;28;20109;-92
2022/03/18 21:03:02;;;;;;;7.43;3.50;;;;;;;7.92;44.84;102958.25;5069632;28;20063;-93
2022/03/18 21:05:44;;;;;;;6.25;3.42;;;;;;;7.51;44.93;102895.63;5077468;28;20052;-93
2022/03/18 21:08:16;;;;;;;7.68;3.58;;;;;;;7.58;44.68;102909.72;5078066;28;20048;-92
2022/03/18 21:10:49;;;;;;;7.18;3.63;;;;;;;7.60;44.59;102913.25;5071465;28;20056;-93
2022/03/18 21:13:18;;;;;;;7.53;3.05;;;;;;;7.54;44.52;102902.69;5069640;28;20052;-93
2022/03/18 21:16:10;;;;;;;6.43;3.50;;;;;;;7.62;44.30;102919.41;5078304;28;20040;-91
2022/03/18 21:18:49;;;;;;;5.25;2.90;;;;;;;7.64;44.53;102936.13;5078074;28;20045;-92
2022/03/18 21:21:38;;;;;;;8.40;3.35;;;;;;;7.64;44.23;102939.66;5073424;28;20121;-92
2022/03/18 21:24:16;;;;;;;5.30;3.05;;;;;;;7.68;44.32;102966.94;5075440;28;20107;-92
2022/03/18 21:32:37;;;;;;;8.38;3.35;;;;;;;7.64;44.55;102928.22;5068013;28;20060;-93
2022/03/18 21:35:28;;;;;;;7.55;4.00;;;;;;;7.54;44.92;102927.28;5063819;28;20044;-93
2022/03/18 21:38:03;;;;;;;6.75;3.63;;;;;;;7.69;45.19;102971.34;5065005;28;20126;-92
2022/03/18 21:40:47;;;;;;;8.38;3.80;;;;;;;7.40;45.49;102947.38;5067334;28;20040;-92
2022/03/18 21:43:45;;;;;;;7.38;3.60;;;;;;;7.53;45.83;102986.19;5065460;28;20044;-93
2022/03/18 21:46:31;;;;;;;6.63;3.78;;;;;;;7.53;45.89;102990.56;5058531;28;20866;-93
2022/03/18 21:49:09;;;;;;;6.95;3.65;;;;;;;7.34;46.06;102971.09;5070004;28;20044;-94
2022/03/18 21:51:40;;;;;;;8.90;3.90;;;;;;;7.16;46.37;102941.97;5073322;28;20155;-93
2022/03/18 21:54:07;;;;;;;9.77;3.90;;;;;;;7.23;46.93;102962.22;5060688;28;20049;-93
2022/03/18 21:56:38;;;;;;;9.48;4.38;;;;;;;7.35;46.78;102984.28;5064824;28;20052;-94
2022/03/18 21:59:43;;;;;;;;;;;;;;;;;;;;;
2022/03/18 22:02:30;;;;;;;;;;;;;;;;;;;;;
